sensor_id;sensor_type;location;lat;lon;timestamp;P1;durP1;ratioP1;P2;durP2;ratioP2
38779;SDS011;29273;49.962;9.768;2023-12-20T00:02:12;1.52;;;1.17;;
38779;SDS011;29273;49.962;9.768;2023-12-20T00:04:38;1.05;;;1.00;;
38779;SDS011;29273;49.962;9.768;2023-12-20T00:07:03;1.20;;;1.10;;
38779;SDS011;29273;49.962;9.768;2023-12-20T00:09:29;1.50;;;1.30;;
38779;SDS011;29273;49.962;9.768;2023-12-20T00:11:54;1.58;;;1.20;;
38779;SDS011;29273;49.962;9.768;2023-12-20T00:14:20;1.55;;;1.20;;
38779;SDS011;29273;49.962;9.768;2023-12-20T00:16:45;1.30;;;1.20;;
38779;SDS011;29273;49.962;9.768;2023-12-20T00:19:12;1.10;;;0.93;;
38779;SDS011;29273;49.962;9.768;2023-12-20T00:21:37;0.95;;;0.90;;
38779;SDS011;29273;49.962;9.768;2023-12-20T00:24:03;0.98;;;0.88;;
38779;SDS011;29273;49.962;9.768;2023-12-20T00:26:29;1.10;;;0.90;;
38779;SDS011;29273;49.962;9.768;2023-12-20T00:28:54;1.52;;;0.90;;
38779;SDS011;29273;49.962;9.768;2023-12-20T00:31:20;1.52;;;0.80;;
38779;SDS011;29273;49.962;9.768;2023-12-20T00:33:45;0.82;;;0.60;;
38779;SDS011;29273;49.962;9.768;2023-12-20T00:36:12;0.63;;;0.60;;
38779;SDS011;29273;49.962;9.768;2023-12-20T00:38:37;0.63;;;0.63;;
38779;SDS011;29273;49.962;9.768;2023-12-20T00:41:03;0.65;;;0.60;;
38779;SDS011;29273;49.962;9.768;2023-12-20T00:43:29;0.50;;;0.50;;
38779;SDS011;29273;49.962;9.768;2023-12-20T00:45:54;0.40;;;0.40;;
38779;SDS011;29273;49.962;9.768;2023-12-20T00:48:20;0.40;;;0.40;;
38779;SDS011;29273;49.962;9.768;2023-12-20T00:50:46;0.47;;;0.47;;
38779;SDS011;29273;49.962;9.768;2023-12-20T00:53:12;0.47;;;0.47;;
38779;SDS011;29273;49.962;9.768;2023-12-20T00:55:37;0.30;;;0.30;;
38779;SDS011;29273;49.962;9.768;2023-12-20T00:58:03;0.50;;;0.50;;
38779;SDS011;29273;49.962;9.768;2023-12-20T01:00:28;0.30;;;0.30;;
38779;SDS011;29273;49.962;9.768;2023-12-20T01:02:54;0.57;;;0.40;;
38779;SDS011;29273;49.962;9.768;2023-12-20T01:05:19;0.40;;;0.40;;
38779;SDS011;29273;49.962;9.768;2023-12-20T01:07:48;0.40;;;0.40;;
38779;SDS011;29273;49.962;9.768;2023-12-20T01:10:14;0.50;;;0.38;;
38779;SDS011;29273;49.962;9.768;2023-12-20T01:12:39;0.30;;;0.30;;
38779;SDS011;29273;49.962;9.768;2023-12-20T01:15:05;0.30;;;0.30;;
38779;SDS011;29273;49.962;9.768;2023-12-20T01:17:31;0.30;;;0.30;;
38779;SDS011;29273;49.962;9.768;2023-12-20T01:19:56;0.40;;;0.35;;
38779;SDS011;29273;49.962;9.768;2023-12-20T01:22:22;0.30;;;0.30;;
38779;SDS011;29273;49.962;9.768;2023-12-20T01:24:47;0.35;;;0.30;;
38779;SDS011;29273;49.962;9.768;2023-12-20T01:27:13;0.95;;;0.40;;
38779;SDS011;29273;49.962;9.768;2023-12-20T01:29:38;0.80;;;0.40;;
38779;SDS011;29273;49.962;9.768;2023-12-20T01:32:04;0.40;;;0.40;;
38779;SDS011;29273;49.962;9.768;2023-12-20T01:34:29;0.50;;;0.40;;
38779;SDS011;29273;49.962;9.768;2023-12-20T01:36:55;0.30;;;0.30;;
38779;SDS011;29273;49.962;9.768;2023-12-20T01:39:20;0.40;;;0.40;;
38779;SDS011;29273;49.962;9.768;2023-12-20T01:41:46;0.28;;;0.28;;
38779;SDS011;29273;49.962;9.768;2023-12-20T01:44:11;0.30;;;0.30;;
38779;SDS011;29273;49.962;9.768;2023-12-20T01:46:37;0.30;;;0.30;;
38779;SDS011;29273;49.962;9.768;2023-12-20T01:49:02;0.25;;;0.25;;
38779;SDS011;29273;49.962;9.768;2023-12-20T01:51:28;0.30;;;0.30;;
38779;SDS011;29273;49.962;9.768;2023-12-20T01:53:55;0.30;;;0.30;;
38779;SDS011;29273;49.962;9.768;2023-12-20T01:56:23;0.20;;;0.20;;
38779;SDS011;29273;49.962;9.768;2023-12-20T01:58:49;0.40;;;0.40;;
38779;SDS011;29273;49.962;9.768;2023-12-20T02:01:14;0.30;;;0.30;;
38779;SDS011;29273;49.962;9.768;2023-12-20T02:03:41;0.38;;;0.38;;
38779;SDS011;29273;49.962;9.768;2023-12-20T02:06:07;0.20;;;0.20;;
38779;SDS011;29273;49.962;9.768;2023-12-20T02:08:34;0.32;;;0.30;;
38779;SDS011;29273;49.962;9.768;2023-12-20T02:10:59;0.43;;;0.30;;
38779;SDS011;29273;49.962;9.768;2023-12-20T02:13:25;0.30;;;0.30;;
38779;SDS011;29273;49.962;9.768;2023-12-20T02:15:52;0.30;;;0.30;;
38779;SDS011;29273;49.962;9.768;2023-12-20T02:18:17;0.50;;;0.30;;
38779;SDS011;29273;49.962;9.768;2023-12-20T02:20:43;0.30;;;0.30;;
38779;SDS011;29273;49.962;9.768;2023-12-20T02:23:09;0.40;;;0.30;;
38779;SDS011;29273;49.962;9.768;2023-12-20T02:25:34;0.30;;;0.30;;
38779;SDS011;29273;49.962;9.768;2023-12-20T02:28:00;0.30;;;0.30;;
38779;SDS011;29273;49.962;9.768;2023-12-20T02:30:27;0.30;;;0.30;;
38779;SDS011;29273;49.962;9.768;2023-12-20T02:32:53;0.28;;;0.28;;
38779;SDS011;29273;49.962;9.768;2023-12-20T02:35:19;0.30;;;0.30;;
38779;SDS011;29273;49.962;9.768;2023-12-20T02:37:44;0.30;;;0.30;;
38779;SDS011;29273;49.962;9.768;2023-12-20T02:40:10;0.30;;;0.30;;
38779;SDS011;29273;49.962;9.768;2023-12-20T02:42:35;0.30;;;0.30;;
38779;SDS011;29273;49.962;9.768;2023-12-20T02:45:01;0.30;;;0.30;;
38779;SDS011;29273;49.962;9.768;2023-12-20T02:47:27;0.30;;;0.30;;
38779;SDS011;29273;49.962;9.768;2023-12-20T02:49:52;0.30;;;0.30;;
38779;SDS011;29273;49.962;9.768;2023-12-20T02:52:18;0.35;;;0.30;;
38779;SDS011;29273;49.962;9.768;2023-12-20T02:54:44;0.30;;;0.30;;
38779;SDS011;29273;49.962;9.768;2023-12-20T02:57:09;0.40;;;0.30;;
38779;SDS011;29273;49.962;9.768;2023-12-20T02:59:35;0.32;;;0.30;;
38779;SDS011;29273;49.962;9.768;2023-12-20T03:02:00;0.30;;;0.30;;
38779;SDS011;29273;49.962;9.768;2023-12-20T03:04:26;0.30;;;0.30;;
38779;SDS011;29273;49.962;9.768;2023-12-20T03:06:51;0.30;;;0.30;;
38779;SDS011;29273;49.962;9.768;2023-12-20T03:09:17;0.30;;;0.30;;
38779;SDS011;29273;49.962;9.768;2023-12-20T03:11:42;0.38;;;0.30;;
38779;SDS011;29273;49.962;9.768;2023-12-20T03:14:07;0.30;;;0.30;;
38779;SDS011;29273;49.962;9.768;2023-12-20T03:16:33;0.30;;;0.30;;
38779;SDS011;29273;49.962;9.768;2023-12-20T03:18:58;0.20;;;0.20;;
38779;SDS011;29273;49.962;9.768;2023-12-20T03:21:24;0.30;;;0.30;;
38779;SDS011;29273;49.962;9.768;2023-12-20T03:23:49;0.30;;;0.30;;
38779;SDS011;29273;49.962;9.768;2023-12-20T03:26:15;0.30;;;0.30;;
38779;SDS011;29273;49.962;9.768;2023-12-20T03:28:40;0.47;;;0.30;;
38779;SDS011;29273;49.962;9.768;2023-12-20T03:31:06;0.22;;;0.22;;
38779;SDS011;29273;49.962;9.768;2023-12-20T03:33:31;0.30;;;0.30;;
38779;SDS011;29273;49.962;9.768;2023-12-20T03:35:57;0.30;;;0.30;;
38779;SDS011;29273;49.962;9.768;2023-12-20T03:38:22;0.30;;;0.30;;
38779;SDS011;29273;49.962;9.768;2023-12-20T03:40:50;0.35;;;0.30;;
38779;SDS011;29273;49.962;9.768;2023-12-20T03:43:16;0.38;;;0.38;;
38779;SDS011;29273;49.962;9.768;2023-12-20T03:45:42;0.30;;;0.30;;
38779;SDS011;29273;49.962;9.768;2023-12-20T03:48:07;0.30;;;0.30;;
38779;SDS011;29273;49.962;9.768;2023-12-20T03:50:33;0.30;;;0.30;;
38779;SDS011;29273;49.962;9.768;2023-12-20T03:52:59;0.30;;;0.30;;
38779;SDS011;29273;49.962;9.768;2023-12-20T03:55:24;0.30;;;0.30;;
38779;SDS011;29273;49.962;9.768;2023-12-20T03:57:50;0.40;;;0.30;;
38779;SDS011;29273;49.962;9.768;2023-12-20T04:00:15;0.55;;;0.30;;
38779;SDS011;29273;49.962;9.768;2023-12-20T04:02:41;0.32;;;0.30;;
38779;SDS011;29273;49.962;9.768;2023-12-20T04:05:07;1.10;;;0.30;;
38779;SDS011;29273;49.962;9.768;2023-12-20T04:07:34;0.30;;;0.30;;
38779;SDS011;29273;49.962;9.768;2023-12-20T04:10:00;0.40;;;0.40;;
38779;SDS011;29273;49.962;9.768;2023-12-20T04:12:27;0.50;;;0.30;;
38779;SDS011;29273;49.962;9.768;2023-12-20T04:14:53;0.40;;;0.40;;
38779;SDS011;29273;49.962;9.768;2023-12-20T04:17:19;0.40;;;0.40;;
38779;SDS011;29273;49.962;9.768;2023-12-20T04:19:45;0.30;;;0.30;;
38779;SDS011;29273;49.962;9.768;2023-12-20T04:22:11;0.90;;;0.40;;
38779;SDS011;29273;49.962;9.768;2023-12-20T04:24:36;0.50;;;0.50;;
38779;SDS011;29273;49.962;9.768;2023-12-20T04:27:01;0.40;;;0.40;;
38779;SDS011;29273;49.962;9.768;2023-12-20T04:29:27;0.52;;;0.52;;
38779;SDS011;29273;49.962;9.768;2023-12-20T04:31:53;0.30;;;0.30;;
38779;SDS011;29273;49.962;9.768;2023-12-20T04:34:19;0.30;;;0.30;;
38779;SDS011;29273;49.962;9.768;2023-12-20T04:36:44;0.30;;;0.30;;
38779;SDS011;29273;49.962;9.768;2023-12-20T04:39:11;0.32;;;0.30;;
38779;SDS011;29273;49.962;9.768;2023-12-20T04:41:37;0.30;;;0.30;;
38779;SDS011;29273;49.962;9.768;2023-12-20T04:44:02;0.40;;;0.40;;
38779;SDS011;29273;49.962;9.768;2023-12-20T04:46:28;0.32;;;0.32;;
38779;SDS011;29273;49.962;9.768;2023-12-20T04:48:53;0.32;;;0.32;;
38779;SDS011;29273;49.962;9.768;2023-12-20T04:51:18;0.35;;;0.35;;
38779;SDS011;29273;49.962;9.768;2023-12-20T04:53:44;0.50;;;0.50;;
38779;SDS011;29273;49.962;9.768;2023-12-20T04:56:10;0.60;;;0.60;;
38779;SDS011;29273;49.962;9.768;2023-12-20T04:58:35;0.70;;;0.40;;
38779;SDS011;29273;49.962;9.768;2023-12-20T05:01:00;0.30;;;0.30;;
38779;SDS011;29273;49.962;9.768;2023-12-20T05:03:26;0.30;;;0.30;;
38779;SDS011;29273;49.962;9.768;2023-12-20T05:05:51;0.40;;;0.40;;
38779;SDS011;29273;49.962;9.768;2023-12-20T05:08:17;0.40;;;0.40;;
38779;SDS011;29273;49.962;9.768;2023-12-20T05:10:43;0.45;;;0.45;;
38779;SDS011;29273;49.962;9.768;2023-12-20T05:13:08;0.22;;;0.22;;
38779;SDS011;29273;49.962;9.768;2023-12-20T05:15:33;0.20;;;0.20;;
38779;SDS011;29273;49.962;9.768;2023-12-20T05:17:59;0.25;;;0.25;;
38779;SDS011;29273;49.962;9.768;2023-12-20T05:20:24;0.30;;;0.30;;
38779;SDS011;29273;49.962;9.768;2023-12-20T05:22:50;0.30;;;0.30;;
38779;SDS011;29273;49.962;9.768;2023-12-20T05:25:15;0.30;;;0.30;;
38779;SDS011;29273;49.962;9.768;2023-12-20T05:27:41;0.30;;;0.30;;
38779;SDS011;29273;49.962;9.768;2023-12-20T05:30:06;0.32;;;0.30;;
38779;SDS011;29273;49.962;9.768;2023-12-20T05:32:32;0.40;;;0.40;;
38779;SDS011;29273;49.962;9.768;2023-12-20T05:34:58;0.40;;;0.35;;
38779;SDS011;29273;49.962;9.768;2023-12-20T05:37:23;0.30;;;0.30;;
38779;SDS011;29273;49.962;9.768;2023-12-20T05:39:48;0.40;;;0.38;;
38779;SDS011;29273;49.962;9.768;2023-12-20T05:42:14;0.43;;;0.40;;
38779;SDS011;29273;49.962;9.768;2023-12-20T05:44:40;0.43;;;0.43;;
38779;SDS011;29273;49.962;9.768;2023-12-20T05:47:05;0.60;;;0.50;;
38779;SDS011;29273;49.962;9.768;2023-12-20T05:49:31;0.73;;;0.55;;
38779;SDS011;29273;49.962;9.768;2023-12-20T05:51:56;0.82;;;0.60;;
38779;SDS011;29273;49.962;9.768;2023-12-20T05:54:22;0.60;;;0.50;;
38779;SDS011;29273;49.962;9.768;2023-12-20T05:56:48;0.60;;;0.60;;
38779;SDS011;29273;49.962;9.768;2023-12-20T05:59:13;0.63;;;0.60;;
38779;SDS011;29273;49.962;9.768;2023-12-20T06:01:39;0.88;;;0.68;;
38779;SDS011;29273;49.962;9.768;2023-12-20T06:04:04;0.60;;;0.60;;
38779;SDS011;29273;49.962;9.768;2023-12-20T06:06:30;1.05;;;0.70;;
38779;SDS011;29273;49.962;9.768;2023-12-20T06:08:56;1.17;;;0.63;;
38779;SDS011;29273;49.962;9.768;2023-12-20T06:11:21;0.65;;;0.55;;
38779;SDS011;29273;49.962;9.768;2023-12-20T06:13:47;1.02;;;0.70;;
38779;SDS011;29273;49.962;9.768;2023-12-20T06:16:14;0.75;;;0.73;;
38779;SDS011;29273;49.962;9.768;2023-12-20T06:18:40;0.93;;;0.68;;
38779;SDS011;29273;49.962;9.768;2023-12-20T06:21:05;0.70;;;0.70;;
38779;SDS011;29273;49.962;9.768;2023-12-20T06:23:32;1.40;;;0.90;;
38779;SDS011;29273;49.962;9.768;2023-12-20T06:25:57;1.17;;;0.90;;
38779;SDS011;29273;49.962;9.768;2023-12-20T06:28:23;2.10;;;0.88;;
38779;SDS011;29273;49.962;9.768;2023-12-20T06:30:48;0.90;;;0.70;;
38779;SDS011;29273;49.962;9.768;2023-12-20T06:33:15;0.98;;;0.80;;
38779;SDS011;29273;49.962;9.768;2023-12-20T06:35:40;1.25;;;0.80;;
38779;SDS011;29273;49.962;9.768;2023-12-20T06:38:06;0.63;;;0.63;;
38779;SDS011;29273;49.962;9.768;2023-12-20T06:40:31;1.13;;;0.85;;
38779;SDS011;29273;49.962;9.768;2023-12-20T06:42:57;1.50;;;1.00;;
38779;SDS011;29273;49.962;9.768;2023-12-20T06:45:22;1.42;;;0.88;;
38779;SDS011;29273;49.962;9.768;2023-12-20T06:47:48;0.82;;;0.70;;
38779;SDS011;29273;49.962;9.768;2023-12-20T06:50:13;0.60;;;0.60;;
38779;SDS011;29273;49.962;9.768;2023-12-20T06:52:39;1.30;;;0.80;;
38779;SDS011;29273;49.962;9.768;2023-12-20T06:55:05;1.48;;;0.82;;
38779;SDS011;29273;49.962;9.768;2023-12-20T06:57:30;1.50;;;0.93;;
38779;SDS011;29273;49.962;9.768;2023-12-20T06:59:56;1.30;;;0.98;;
38779;SDS011;29273;49.962;9.768;2023-12-20T07:02:23;1.10;;;0.95;;
38779;SDS011;29273;49.962;9.768;2023-12-20T07:04:48;1.48;;;0.80;;
38779;SDS011;29273;49.962;9.768;2023-12-20T07:07:13;1.52;;;0.90;;
38779;SDS011;29273;49.962;9.768;2023-12-20T07:09:39;0.75;;;0.60;;
38779;SDS011;29273;49.962;9.768;2023-12-20T07:12:07;0.80;;;0.65;;
38779;SDS011;29273;49.962;9.768;2023-12-20T07:14:33;0.68;;;0.65;;
38779;SDS011;29273;49.962;9.768;2023-12-20T07:16:59;0.85;;;0.65;;
38779;SDS011;29273;49.962;9.768;2023-12-20T07:19:24;0.70;;;0.60;;
38779;SDS011;29273;49.962;9.768;2023-12-20T07:21:50;1.10;;;0.70;;
38779;SDS011;29273;49.962;9.768;2023-12-20T07:24:15;0.60;;;0.60;;
38779;SDS011;29273;49.962;9.768;2023-12-20T07:26:41;1.70;;;0.80;;
38779;SDS011;29273;49.962;9.768;2023-12-20T07:29:06;1.40;;;0.80;;
38779;SDS011;29273;49.962;9.768;2023-12-20T07:31:32;0.95;;;0.80;;
38779;SDS011;29273;49.962;9.768;2023-12-20T07:33:57;1.83;;;0.80;;
38779;SDS011;29273;49.962;9.768;2023-12-20T07:36:23;1.75;;;0.90;;
38779;SDS011;29273;49.962;9.768;2023-12-20T07:38:49;1.75;;;0.70;;
38779;SDS011;29273;49.962;9.768;2023-12-20T07:41:14;0.90;;;0.68;;
38779;SDS011;29273;49.962;9.768;2023-12-20T07:43:41;1.02;;;0.80;;
38779;SDS011;29273;49.962;9.768;2023-12-20T07:46:07;1.55;;;0.90;;
38779;SDS011;29273;49.962;9.768;2023-12-20T07:48:36;2.63;;;0.80;;
38779;SDS011;29273;49.962;9.768;2023-12-20T07:51:03;1.33;;;0.85;;
38779;SDS011;29273;49.962;9.768;2023-12-20T07:53:29;1.73;;;1.00;;
38779;SDS011;29273;49.962;9.768;2023-12-20T07:55:54;1.05;;;0.90;;
38779;SDS011;29273;49.962;9.768;2023-12-20T07:58:20;0.95;;;0.90;;
38779;SDS011;29273;49.962;9.768;2023-12-20T08:00:46;1.05;;;0.88;;
38779;SDS011;29273;49.962;9.768;2023-12-20T08:03:11;1.50;;;0.82;;
38779;SDS011;29273;49.962;9.768;2023-12-20T08:05:38;0.80;;;0.80;;
38779;SDS011;29273;49.962;9.768;2023-12-20T08:08:05;2.05;;;1.00;;
38779;SDS011;29273;49.962;9.768;2023-12-20T08:10:31;1.02;;;0.90;;
38779;SDS011;29273;49.962;9.768;2023-12-20T08:12:57;1.38;;;0.80;;
38779;SDS011;29273;49.962;9.768;2023-12-20T08:15:23;1.45;;;0.90;;
38779;SDS011;29273;49.962;9.768;2023-12-20T08:17:48;1.75;;;0.90;;
38779;SDS011;29273;49.962;9.768;2023-12-20T08:20:16;1.30;;;0.90;;
38779;SDS011;29273;49.962;9.768;2023-12-20T08:22:42;1.73;;;0.70;;
38779;SDS011;29273;49.962;9.768;2023-12-20T08:25:07;0.80;;;0.60;;
38779;SDS011;29273;49.962;9.768;2023-12-20T08:27:34;1.48;;;0.80;;
38779;SDS011;29273;49.962;9.768;2023-12-20T08:30:03;0.90;;;0.70;;
38779;SDS011;29273;49.962;9.768;2023-12-20T08:32:29;1.00;;;0.65;;
38779;SDS011;29273;49.962;9.768;2023-12-20T08:34:54;1.02;;;0.82;;
38779;SDS011;29273;49.962;9.768;2023-12-20T08:37:20;1.67;;;0.75;;
38779;SDS011;29273;49.962;9.768;2023-12-20T08:39:45;1.40;;;0.80;;
38779;SDS011;29273;49.962;9.768;2023-12-20T08:42:11;1.33;;;0.60;;
38779;SDS011;29273;49.962;9.768;2023-12-20T08:44:36;2.05;;;0.70;;
38779;SDS011;29273;49.962;9.768;2023-12-20T08:47:02;3.05;;;0.90;;
38779;SDS011;29273;49.962;9.768;2023-12-20T08:49:28;1.70;;;0.70;;
38779;SDS011;29273;49.962;9.768;2023-12-20T08:51:53;1.77;;;0.70;;
38779;SDS011;29273;49.962;9.768;2023-12-20T08:54:19;3.72;;;0.93;;
38779;SDS011;29273;49.962;9.768;2023-12-20T08:56:44;1.55;;;0.88;;
38779;SDS011;29273;49.962;9.768;2023-12-20T08:59:12;2.22;;;0.90;;
38779;SDS011;29273;49.962;9.768;2023-12-20T09:01:37;2.03;;;0.90;;
38779;SDS011;29273;49.962;9.768;2023-12-20T09:04:03;1.83;;;1.10;;
38779;SDS011;29273;49.962;9.768;2023-12-20T09:06:28;1.88;;;0.60;;
38779;SDS011;29273;49.962;9.768;2023-12-20T09:08:54;1.65;;;0.70;;
38779;SDS011;29273;49.962;9.768;2023-12-20T09:11:19;0.95;;;0.60;;
38779;SDS011;29273;49.962;9.768;2023-12-20T09:13:45;1.05;;;0.60;;
38779;SDS011;29273;49.962;9.768;2023-12-20T09:16:10;1.60;;;0.60;;
38779;SDS011;29273;49.962;9.768;2023-12-20T09:18:36;1.63;;;0.68;;
38779;SDS011;29273;49.962;9.768;2023-12-20T09:21:01;1.83;;;0.73;;
38779;SDS011;29273;49.962;9.768;2023-12-20T09:23:27;2.00;;;0.93;;
38779;SDS011;29273;49.962;9.768;2023-12-20T09:25:53;2.53;;;1.05;;
38779;SDS011;29273;49.962;9.768;2023-12-20T09:28:19;1.17;;;0.80;;
38779;SDS011;29273;49.962;9.768;2023-12-20T09:30:44;1.40;;;0.70;;
38779;SDS011;29273;49.962;9.768;2023-12-20T09:33:11;1.63;;;0.70;;
38779;SDS011;29273;49.962;9.768;2023-12-20T09:35:37;2.80;;;0.70;;
38779;SDS011;29273;49.962;9.768;2023-12-20T09:38:03;1.83;;;0.70;;
38779;SDS011;29273;49.962;9.768;2023-12-20T09:40:29;2.60;;;0.82;;
38779;SDS011;29273;49.962;9.768;2023-12-20T09:42:58;1.38;;;0.70;;
38779;SDS011;29273;49.962;9.768;2023-12-20T09:45:28;1.43;;;0.67;;
38779;SDS011;29273;49.962;9.768;2023-12-20T09:47:56;2.33;;;1.00;;
38779;SDS011;29273;49.962;9.768;2023-12-20T09:50:23;1.55;;;0.98;;
38779;SDS011;29273;49.962;9.768;2023-12-20T09:52:49;3.25;;;1.02;;
38779;SDS011;29273;49.962;9.768;2023-12-20T09:55:17;2.60;;;0.90;;
38779;SDS011;29273;49.962;9.768;2023-12-20T09:57:44;2.25;;;0.90;;
38779;SDS011;29273;49.962;9.768;2023-12-20T10:00:10;2.38;;;0.73;;
38779;SDS011;29273;49.962;9.768;2023-12-20T10:02:41;1.70;;;0.80;;
38779;SDS011;29273;49.962;9.768;2023-12-20T10:05:10;1.52;;;0.63;;
38779;SDS011;29273;49.962;9.768;2023-12-20T10:07:41;2.40;;;0.77;;
38779;SDS011;29273;49.962;9.768;2023-12-20T10:10:07;1.50;;;0.75;;
38779;SDS011;29273;49.962;9.768;2023-12-20T10:12:34;1.02;;;0.80;;
38779;SDS011;29273;49.962;9.768;2023-12-20T10:14:59;1.77;;;0.70;;
38779;SDS011;29273;49.962;9.768;2023-12-20T10:17:25;1.75;;;0.70;;
38779;SDS011;29273;49.962;9.768;2023-12-20T10:19:54;2.58;;;0.90;;
38779;SDS011;29273;49.962;9.768;2023-12-20T10:22:19;2.90;;;0.80;;
38779;SDS011;29273;49.962;9.768;2023-12-20T10:24:45;3.20;;;0.90;;
38779;SDS011;29273;49.962;9.768;2023-12-20T10:27:11;1.92;;;0.80;;
38779;SDS011;29273;49.962;9.768;2023-12-20T10:29:37;1.23;;;0.80;;
38779;SDS011;29273;49.962;9.768;2023-12-20T10:32:22;3.03;;;0.70;;
38779;SDS011;29273;49.962;9.768;2023-12-20T10:34:49;2.15;;;0.75;;
38779;SDS011;29273;49.962;9.768;2023-12-20T10:37:16;3.28;;;1.10;;
38779;SDS011;29273;49.962;9.768;2023-12-20T10:39:42;2.53;;;0.90;;
38779;SDS011;29273;49.962;9.768;2023-12-20T10:42:08;1.48;;;1.00;;
38779;SDS011;29273;49.962;9.768;2023-12-20T10:44:36;2.03;;;0.88;;
38779;SDS011;29273;49.962;9.768;2023-12-20T10:47:02;1.63;;;0.70;;
38779;SDS011;29273;49.962;9.768;2023-12-20T10:49:29;2.80;;;1.40;;
38779;SDS011;29273;49.962;9.768;2023-12-20T10:51:56;2.10;;;0.80;;
38779;SDS011;29273;49.962;9.768;2023-12-20T10:54:25;1.13;;;0.70;;
38779;SDS011;29273;49.962;9.768;2023-12-20T10:56:51;1.20;;;0.80;;
38779;SDS011;29273;49.962;9.768;2023-12-20T10:59:18;1.70;;;0.65;;
38779;SDS011;29273;49.962;9.768;2023-12-20T11:01:45;1.42;;;0.60;;
38779;SDS011;29273;49.962;9.768;2023-12-20T11:04:15;1.75;;;0.73;;
38779;SDS011;29273;49.962;9.768;2023-12-20T11:06:47;1.58;;;0.77;;
38779;SDS011;29273;49.962;9.768;2023-12-20T11:12:19;1.23;;;0.65;;
38779;SDS011;29273;49.962;9.768;2023-12-20T11:14:54;1.02;;;0.68;;
38779;SDS011;29273;49.962;9.768;2023-12-20T11:17:22;1.77;;;0.77;;
38779;SDS011;29273;49.962;9.768;2023-12-20T11:22:17;1.63;;;0.80;;
38779;SDS011;29273;49.962;9.768;2023-12-20T11:24:44;1.55;;;0.85;;
38779;SDS011;29273;49.962;9.768;2023-12-20T11:27:10;1.98;;;1.00;;
38779;SDS011;29273;49.962;9.768;2023-12-20T11:29:36;1.58;;;0.90;;
38779;SDS011;29273;49.962;9.768;2023-12-20T11:32:47;2.78;;;0.80;;
38779;SDS011;29273;49.962;9.768;2023-12-20T11:34:53;2.30;;;1.00;;
38779;SDS011;29273;49.962;9.768;2023-12-20T11:37:28;1.20;;;0.82;;
38779;SDS011;29273;49.962;9.768;2023-12-20T11:39:55;3.45;;;1.15;;
38779;SDS011;29273;49.962;9.768;2023-12-20T11:42:21;1.83;;;1.00;;
38779;SDS011;29273;49.962;9.768;2023-12-20T11:44:47;1.65;;;0.90;;
38779;SDS011;29273;49.962;9.768;2023-12-20T11:47:13;3.13;;;0.90;;
38779;SDS011;29273;49.962;9.768;2023-12-20T11:49:40;3.35;;;1.05;;
38779;SDS011;29273;49.962;9.768;2023-12-20T11:52:06;3.30;;;0.98;;
38779;SDS011;29273;49.962;9.768;2023-12-20T11:54:32;2.40;;;1.00;;
38779;SDS011;29273;49.962;9.768;2023-12-20T11:56:57;2.53;;;1.00;;
38779;SDS011;29273;49.962;9.768;2023-12-20T11:59:23;3.10;;;1.30;;
38779;SDS011;29273;49.962;9.768;2023-12-20T12:01:49;2.38;;;0.98;;
38779;SDS011;29273;49.962;9.768;2023-12-20T12:04:15;3.92;;;1.10;;
38779;SDS011;29273;49.962;9.768;2023-12-20T12:06:42;3.20;;;1.02;;
38779;SDS011;29273;49.962;9.768;2023-12-20T12:09:08;2.15;;;0.80;;
38779;SDS011;29273;49.962;9.768;2023-12-20T12:11:34;2.15;;;1.00;;
38779;SDS011;29273;49.962;9.768;2023-12-20T12:14:00;1.95;;;0.85;;
38779;SDS011;29273;49.962;9.768;2023-12-20T12:16:26;3.15;;;1.20;;
38779;SDS011;29273;49.962;9.768;2023-12-20T12:18:55;2.50;;;1.02;;
38779;SDS011;29273;49.962;9.768;2023-12-20T12:21:24;1.98;;;1.05;;
38779;SDS011;29273;49.962;9.768;2023-12-20T12:23:50;3.47;;;1.30;;
38779;SDS011;29273;49.962;9.768;2023-12-20T12:26:15;1.42;;;0.80;;
38779;SDS011;29273;49.962;9.768;2023-12-20T12:28:41;2.30;;;0.95;;
38779;SDS011;29273;49.962;9.768;2023-12-20T12:31:07;2.88;;;1.23;;
38779;SDS011;29273;49.962;9.768;2023-12-20T12:33:34;3.80;;;1.20;;
38779;SDS011;29273;49.962;9.768;2023-12-20T12:36:00;3.58;;;1.20;;
38779;SDS011;29273;49.962;9.768;2023-12-20T12:38:26;2.25;;;1.10;;
38779;SDS011;29273;49.962;9.768;2023-12-20T12:40:52;3.33;;;1.00;;
38779;SDS011;29273;49.962;9.768;2023-12-20T12:43:19;2.72;;;1.10;;
38779;SDS011;29273;49.962;9.768;2023-12-20T12:45:45;1.95;;;1.10;;
38779;SDS011;29273;49.962;9.768;2023-12-20T12:48:11;2.80;;;0.80;;
38779;SDS011;29273;49.962;9.768;2023-12-20T12:50:36;1.45;;;0.90;;
38779;SDS011;29273;49.962;9.768;2023-12-20T12:53:02;3.63;;;1.13;;
38779;SDS011;29273;49.962;9.768;2023-12-20T12:55:28;2.72;;;0.90;;
38779;SDS011;29273;49.962;9.768;2023-12-20T12:57:53;1.98;;;1.00;;
38779;SDS011;29273;49.962;9.768;2023-12-20T13:00:19;1.52;;;1.00;;
38779;SDS011;29273;49.962;9.768;2023-12-20T13:02:45;2.58;;;0.98;;
38779;SDS011;29273;49.962;9.768;2023-12-20T13:05:11;3.15;;;1.10;;
38779;SDS011;29273;49.962;9.768;2023-12-20T13:07:36;2.58;;;0.90;;
38779;SDS011;29273;49.962;9.768;2023-12-20T13:10:02;4.15;;;1.02;;
38779;SDS011;29273;49.962;9.768;2023-12-20T13:12:29;2.85;;;1.15;;
38779;SDS011;29273;49.962;9.768;2023-12-20T13:14:54;2.15;;;1.00;;
38779;SDS011;29273;49.962;9.768;2023-12-20T13:17:20;2.33;;;1.00;;
38779;SDS011;29273;49.962;9.768;2023-12-20T13:19:46;3.45;;;1.23;;
38779;SDS011;29273;49.962;9.768;2023-12-20T13:22:11;1.85;;;0.90;;
38779;SDS011;29273;49.962;9.768;2023-12-20T13:24:37;2.60;;;0.90;;
38779;SDS011;29273;49.962;9.768;2023-12-20T13:27:02;3.55;;;1.10;;
38779;SDS011;29273;49.962;9.768;2023-12-20T13:29:28;1.98;;;1.08;;
38779;SDS011;29273;49.962;9.768;2023-12-20T13:31:54;2.58;;;1.00;;
38779;SDS011;29273;49.962;9.768;2023-12-20T13:34:19;1.98;;;0.93;;
38779;SDS011;29273;49.962;9.768;2023-12-20T13:36:45;2.45;;;0.95;;
38779;SDS011;29273;49.962;9.768;2023-12-20T13:39:12;1.85;;;0.77;;
38779;SDS011;29273;49.962;9.768;2023-12-20T13:41:39;2.78;;;1.00;;
38779;SDS011;29273;49.962;9.768;2023-12-20T13:44:04;1.58;;;0.80;;
38779;SDS011;29273;49.962;9.768;2023-12-20T13:46:30;2.50;;;1.00;;
38779;SDS011;29273;49.962;9.768;2023-12-20T13:48:56;3.08;;;0.77;;
38779;SDS011;29273;49.962;9.768;2023-12-20T13:51:22;2.33;;;0.93;;
38779;SDS011;29273;49.962;9.768;2023-12-20T13:53:47;2.63;;;1.00;;
38779;SDS011;29273;49.962;9.768;2023-12-20T13:56:13;2.58;;;1.20;;
38779;SDS011;29273;49.962;9.768;2023-12-20T13:58:42;2.72;;;1.02;;
38779;SDS011;29273;49.962;9.768;2023-12-20T14:01:08;2.63;;;1.00;;
38779;SDS011;29273;49.962;9.768;2023-12-20T14:03:35;2.47;;;1.17;;
38779;SDS011;29273;49.962;9.768;2023-12-20T14:06:01;3.25;;;1.02;;
38779;SDS011;29273;49.962;9.768;2023-12-20T14:08:26;3.08;;;1.02;;
38779;SDS011;29273;49.962;9.768;2023-12-20T14:10:52;2.38;;;1.10;;
38779;SDS011;29273;49.962;9.768;2023-12-20T14:13:18;2.95;;;1.13;;
38779;SDS011;29273;49.962;9.768;2023-12-20T14:15:44;2.92;;;1.00;;
38779;SDS011;29273;49.962;9.768;2023-12-20T14:18:09;3.28;;;1.00;;
38779;SDS011;29273;49.962;9.768;2023-12-20T14:20:35;2.10;;;0.95;;
38779;SDS011;29273;49.962;9.768;2023-12-20T14:23:01;2.28;;;0.90;;
38779;SDS011;29273;49.962;9.768;2023-12-20T14:25:27;2.65;;;0.90;;
38779;SDS011;29273;49.962;9.768;2023-12-20T14:27:52;2.45;;;1.15;;
38779;SDS011;29273;49.962;9.768;2023-12-20T14:30:18;4.55;;;1.20;;
38779;SDS011;29273;49.962;9.768;2023-12-20T14:32:43;2.00;;;1.00;;
38779;SDS011;29273;49.962;9.768;2023-12-20T14:35:09;2.35;;;1.30;;
38779;SDS011;29273;49.962;9.768;2023-12-20T14:37:35;2.25;;;1.00;;
38779;SDS011;29273;49.962;9.768;2023-12-20T14:40:05;2.13;;;1.23;;
38779;SDS011;29273;49.962;9.768;2023-12-20T14:42:31;3.58;;;1.55;;
38779;SDS011;29273;49.962;9.768;2023-12-20T14:44:57;3.53;;;1.25;;
38779;SDS011;29273;49.962;9.768;2023-12-20T14:47:23;3.53;;;1.40;;